Aviation Digital Data Service (ADDS)

Output produced by METARs form (0147 UTC 16 January 2019)
found at http://www.aviationweather.gov/metar/data/
 
TAF SLCO 151640Z 1600/1624 00000KT 7000 VCSH SCT017 FEW023CB BKN080 TX32/1620Z
TN23/1610Z 
     BECMG 1612/1614 30007KT SCT020 
     TEMPO 1618/1622 7000 SHRA FEW023CB
       
TAF SLCB 152240Z 1600/1624 14010KT 9999 FEW033 SCT070 TX30/1619Z TN13/1610Z 
     PROB30 
     TEMPO 1603/1605 8000 SHRA SCT027 FEW036CB BKN070 
     BECMG 1605/1607 00000KT SCT027 BKN070 
     BECMG 1614/1616 29010KT FEW030 SCT070 
     TEMPO 1619/1621 TS FEW036CB
       
TAF SLLP 152240Z 1600/1624 07005KT 9999 FEW015 SCT070 TX16/1620Z TN03/1610Z 
     BECMG 1603/1605 3000E VCFG 
     TEMPO 1607/1609 RA 
     BECMG 1612/ 1614 12008KT 9999 NSW 
     TEMPO 1618/1622 34012KT 5000 VCTSSH SCT017 FEW020CB
       
TAF SLPS 152240Z 1600/1624 00000KT 9999 NSC TX37/1619Z TN24/1610Z 
     TEMPO 1614/1617 06010KT BKN017
       
TAF SLET 152240Z 1600/1624 34015KT 9999 SCT017 FEW027TCU TX33/1619Z TN24/1610Z 
     PROB30 
     TEMPO 1607/1610 6000 RADZ BKN005 
     BECMG 1614/1618 33015G30KT SCT008 BKN017C
     BECMG 1621/1623 32008KT SCT020 FEW023TCU
       
TAF SLVR 152240Z 1600/1624 34015KT 9999 SCT017 FEW027TCU TX33/1619Z TN24/1610Z 
     PROB30 
     TEMPO 1607/1610 6000 RADZ BKN005 
     BECMG 1614/1618 33015G30KT SCT008 BKN017 
     BECMG 1621/1623 32008KT SCT020 FEW023TCU
       
TAF SLTJ 152240Z 1600/1624 14010KT 9999 SCT030 BKN070 TX29/1619Z TN17/1610Z 
     PROB30 
     TEMPO 1603/1605 8000 TSRA FEW036CB 
     BECMG 1605/1607 00000KT BKN025 BKN070 
     BECMG 1614/1616 21010KT SCT030 SCT070
       
TAF SLTR 151630Z 1518/1618 33008KT 9999 SCT017 FEW020CB BKN080 TX33/ 1520Z
TN22/1610Z 
     TEMPO 1519/1522 7000 SHRA 
     BECMG 1523/1602 00000KT FEW017 SCT080